sensor_id;sensor_type;location;lat;lon;timestamp;temperature;humidity
69464;DHT22;56665;41.106;16.688;2023-07-13T00:00:32;29.42;51.30
69464;DHT22;56665;41.106;16.688;2023-07-13T00:03:36;29.44;51.38
69464;DHT22;56665;41.106;16.688;2023-07-13T00:06:40;29.44;51.61
69464;DHT22;56665;41.106;16.688;2023-07-13T00:09:48;29.39;51.17
69464;DHT22;56665;41.106;16.688;2023-07-13T00:12:51;29.33;51.17
69464;DHT22;56665;41.106;16.688;2023-07-13T00:15:58;29.26;50.93
69464;DHT22;56665;41.106;16.688;2023-07-13T00:19:02;29.31;51.46
69464;DHT22;56665;41.106;16.688;2023-07-13T00:22:06;29.28;52.28
69464;DHT22;56665;41.106;16.688;2023-07-13T00:25:11;29.28;51.58
69464;DHT22;56665;41.106;16.688;2023-07-13T00:28:16;29.30;52.31
69464;DHT22;56665;41.106;16.688;2023-07-13T00:31:21;29.28;51.48
69464;DHT22;56665;41.106;16.688;2023-07-13T00:34:25;29.26;52.02
69464;DHT22;56665;41.106;16.688;2023-07-13T00:37:30;29.15;51.89
69464;DHT22;56665;41.106;16.688;2023-07-13T00:40:35;29.12;52.70
69464;DHT22;56665;41.106;16.688;2023-07-13T00:43:40;29.12;52.66
69464;DHT22;56665;41.106;16.688;2023-07-13T00:46:45;29.10;52.81
69464;DHT22;56665;41.106;16.688;2023-07-13T00:49:49;29.06;53.07
69464;DHT22;56665;41.106;16.688;2023-07-13T00:52:54;28.91;53.20
69464;DHT22;56665;41.106;16.688;2023-07-13T00:55:59;28.93;52.80
69464;DHT22;56665;41.106;16.688;2023-07-13T00:59:04;28.91;53.13
69464;DHT22;56665;41.106;16.688;2023-07-13T01:02:10;28.86;52.80
69464;DHT22;56665;41.106;16.688;2023-07-13T01:05:17;28.84;52.49
69464;DHT22;56665;41.106;16.688;2023-07-13T01:08:22;28.89;52.01
69464;DHT22;56665;41.106;16.688;2023-07-13T01:11:26;28.89;52.12
69464;DHT22;56665;41.106;16.688;2023-07-13T01:14:29;28.89;51.62
69464;DHT22;56665;41.106;16.688;2023-07-13T01:17:34;28.87;51.49
69464;DHT22;56665;41.106;16.688;2023-07-13T01:20:38;28.87;51.55
69464;DHT22;56665;41.106;16.688;2023-07-13T01:23:42;28.90;52.11
69464;DHT22;56665;41.106;16.688;2023-07-13T01:26:47;28.91;51.04
69464;DHT22;56665;41.106;16.688;2023-07-13T01:29:52;28.91;51.18
69464;DHT22;56665;41.106;16.688;2023-07-13T01:32:56;28.93;51.12
69464;DHT22;56665;41.106;16.688;2023-07-13T01:36:00;28.93;51.22
69464;DHT22;56665;41.106;16.688;2023-07-13T01:39:06;28.87;51.28
69464;DHT22;56665;41.106;16.688;2023-07-13T01:42:11;28.93;51.34
69464;DHT22;56665;41.106;16.688;2023-07-13T01:45:15;28.90;51.15
69464;DHT22;56665;41.106;16.688;2023-07-13T01:48:19;28.77;51.07
69464;DHT22;56665;41.106;16.688;2023-07-13T01:51:25;28.73;51.72
69464;DHT22;56665;41.106;16.688;2023-07-13T01:54:30;28.70;51.95
69464;DHT22;56665;41.106;16.688;2023-07-13T01:57:34;28.72;51.98
69464;DHT22;56665;41.106;16.688;2023-07-13T02:00:38;28.75;51.66
69464;DHT22;56665;41.106;16.688;2023-07-13T02:03:41;28.70;51.39
69464;DHT22;56665;41.106;16.688;2023-07-13T02:06:45;28.72;50.97
69464;DHT22;56665;41.106;16.688;2023-07-13T02:09:49;28.68;50.84
69464;DHT22;56665;41.106;16.688;2023-07-13T02:12:53;28.68;51.20
69464;DHT22;56665;41.106;16.688;2023-07-13T02:15:56;28.55;50.83
69464;DHT22;56665;41.106;16.688;2023-07-13T02:19:00;28.46;51.21
69464;DHT22;56665;41.106;16.688;2023-07-13T02:22:04;28.48;51.38
69464;DHT22;56665;41.106;16.688;2023-07-13T02:25:08;28.56;50.84
69464;DHT22;56665;41.106;16.688;2023-07-13T02:28:12;28.59;50.62
69464;DHT22;56665;41.106;16.688;2023-07-13T02:31:16;28.65;50.70
69464;DHT22;56665;41.106;16.688;2023-07-13T02:34:20;28.66;50.82
69464;DHT22;56665;41.106;16.688;2023-07-13T02:37:23;28.66;51.28
69464;DHT22;56665;41.106;16.688;2023-07-13T02:40:27;28.66;50.90
69464;DHT22;56665;41.106;16.688;2023-07-13T02:43:31;28.62;50.68
69464;DHT22;56665;41.106;16.688;2023-07-13T02:46:37;28.60;50.47
69464;DHT22;56665;41.106;16.688;2023-07-13T02:49:40;28.53;50.48
69464;DHT22;56665;41.106;16.688;2023-07-13T02:52:44;28.55;51.18
69464;DHT22;56665;41.106;16.688;2023-07-13T02:55:48;28.52;49.77
69464;DHT22;56665;41.106;16.688;2023-07-13T02:58:52;28.49;49.77
69464;DHT22;56665;41.106;16.688;2023-07-13T03:01:57;28.40;49.45
69464;DHT22;56665;41.106;16.688;2023-07-13T03:05:01;28.33;49.26
69464;DHT22;56665;41.106;16.688;2023-07-13T03:08:07;28.29;49.39
69464;DHT22;56665;41.106;16.688;2023-07-13T03:11:14;28.28;49.06
69464;DHT22;56665;41.106;16.688;2023-07-13T03:14:20;28.25;48.79
69464;DHT22;56665;41.106;16.688;2023-07-13T03:17:24;28.25;48.68
69464;DHT22;56665;41.106;16.688;2023-07-13T03:20:32;28.18;48.49
69464;DHT22;56665;41.106;16.688;2023-07-13T03:23:36;28.19;48.24
69464;DHT22;56665;41.106;16.688;2023-07-13T03:26:40;28.19;47.93
69464;DHT22;56665;41.106;16.688;2023-07-13T03:29:44;28.19;47.62
69464;DHT22;56665;41.106;16.688;2023-07-13T03:32:49;28.21;47.45
69464;DHT22;56665;41.106;16.688;2023-07-13T03:35:53;28.17;47.42
69464;DHT22;56665;41.106;16.688;2023-07-13T03:38:59;28.19;47.48
69464;DHT22;56665;41.106;16.688;2023-07-13T03:42:10;28.18;47.27
69464;DHT22;56665;41.106;16.688;2023-07-13T03:45:14;28.19;47.03
69464;DHT22;56665;41.106;16.688;2023-07-13T03:48:19;28.22;47.04
69464;DHT22;56665;41.106;16.688;2023-07-13T03:51:22;28.28;46.82
69464;DHT22;56665;41.106;16.688;2023-07-13T03:54:26;28.31;46.72
69464;DHT22;56665;41.106;16.688;2023-07-13T03:57:31;28.35;46.67
69464;DHT22;56665;41.106;16.688;2023-07-13T04:00:36;28.39;46.61
69464;DHT22;56665;41.106;16.688;2023-07-13T04:03:40;28.46;46.64
69464;DHT22;56665;41.106;16.688;2023-07-13T04:06:43;28.50;46.72
69464;DHT22;56665;41.106;16.688;2023-07-13T04:09:49;28.59;46.62
69464;DHT22;56665;41.106;16.688;2023-07-13T04:12:52;28.65;46.78
69464;DHT22;56665;41.106;16.688;2023-07-13T04:15:56;28.73;46.78
69464;DHT22;56665;41.106;16.688;2023-07-13T04:19:01;28.82;46.89
69464;DHT22;56665;41.106;16.688;2023-07-13T04:22:05;28.89;46.97
69464;DHT22;56665;41.106;16.688;2023-07-13T04:25:09;28.96;46.88
69464;DHT22;56665;41.106;16.688;2023-07-13T04:28:13;29.06;46.88
69464;DHT22;56665;41.106;16.688;2023-07-13T04:31:17;29.14;46.81
69464;DHT22;56665;41.106;16.688;2023-07-13T04:34:20;29.27;46.89
69464;DHT22;56665;41.106;16.688;2023-07-13T04:37:25;29.37;46.94
69464;DHT22;56665;41.106;16.688;2023-07-13T04:40:29;29.45;47.11
69464;DHT22;56665;41.106;16.688;2023-07-13T04:43:33;29.55;47.17
69464;DHT22;56665;41.106;16.688;2023-07-13T04:46:37;29.61;47.23
69464;DHT22;56665;41.106;16.688;2023-07-13T04:49:41;29.72;47.40
69464;DHT22;56665;41.106;16.688;2023-07-13T04:52:45;29.88;47.47
69464;DHT22;56665;41.106;16.688;2023-07-13T04:55:48;30.03;47.39
69464;DHT22;56665;41.106;16.688;2023-07-13T04:58:52;30.17;47.40
69464;DHT22;56665;41.106;16.688;2023-07-13T05:01:56;30.33;47.29
69464;DHT22;56665;41.106;16.688;2023-07-13T05:05:00;30.46;47.12
69464;DHT22;56665;41.106;16.688;2023-07-13T05:08:04;30.64;46.88
69464;DHT22;56665;41.106;16.688;2023-07-13T05:11:08;30.78;46.45
69464;DHT22;56665;41.106;16.688;2023-07-13T05:14:12;30.98;45.76
69464;DHT22;56665;41.106;16.688;2023-07-13T05:17:15;31.11;45.41
69464;DHT22;56665;41.106;16.688;2023-07-13T05:20:19;31.25;44.83
69464;DHT22;56665;41.106;16.688;2023-07-13T05:23:23;31.45;44.23
69464;DHT22;56665;41.106;16.688;2023-07-13T05:26:27;31.66;43.41
69464;DHT22;56665;41.106;16.688;2023-07-13T05:29:31;31.87;42.37
69464;DHT22;56665;41.106;16.688;2023-07-13T05:32:34;32.08;41.37
69464;DHT22;56665;41.106;16.688;2023-07-13T05:35:38;32.34;40.52
69464;DHT22;56665;41.106;16.688;2023-07-13T05:38:43;32.49;39.81
69464;DHT22;56665;41.106;16.688;2023-07-13T05:41:47;32.73;39.11
69464;DHT22;56665;41.106;16.688;2023-07-13T05:44:52;33.02;38.44
69464;DHT22;56665;41.106;16.688;2023-07-13T05:47:56;33.33;37.56
69464;DHT22;56665;41.106;16.688;2023-07-13T05:51:01;33.62;36.93
69464;DHT22;56665;41.106;16.688;2023-07-13T05:54:04;33.92;36.19
69464;DHT22;56665;41.106;16.688;2023-07-13T05:57:08;34.12;35.80
69464;DHT22;56665;41.106;16.688;2023-07-13T06:00:12;34.38;35.24
69464;DHT22;56665;41.106;16.688;2023-07-13T06:03:17;34.64;34.95
69464;DHT22;56665;41.106;16.688;2023-07-13T06:06:21;35.06;34.36
69464;DHT22;56665;41.106;16.688;2023-07-13T06:09:24;35.37;33.76
69464;DHT22;56665;41.106;16.688;2023-07-13T06:12:28;35.61;33.12
69464;DHT22;56665;41.106;16.688;2023-07-13T06:15:32;35.92;32.76
69464;DHT22;56665;41.106;16.688;2023-07-13T06:18:37;36.26;32.39
69464;DHT22;56665;41.106;16.688;2023-07-13T06:21:40;36.54;32.21
69464;DHT22;56665;41.106;16.688;2023-07-13T06:24:45;36.84;32.07
69464;DHT22;56665;41.106;16.688;2023-07-13T06:27:49;37.12;31.73
69464;DHT22;56665;41.106;16.688;2023-07-13T06:30:52;37.29;31.36
69464;DHT22;56665;41.106;16.688;2023-07-13T06:33:56;37.59;31.03
69464;DHT22;56665;41.106;16.688;2023-07-13T06:37:00;37.93;30.42
69464;DHT22;56665;41.106;16.688;2023-07-13T06:40:04;38.21;29.88
69464;DHT22;56665;41.106;16.688;2023-07-13T06:43:08;38.55;29.44
69464;DHT22;56665;41.106;16.688;2023-07-13T06:46:12;38.85;29.15
69464;DHT22;56665;41.106;16.688;2023-07-13T06:49:15;39.03;28.95
69464;DHT22;56665;41.106;16.688;2023-07-13T06:52:19;39.33;27.93
69464;DHT22;56665;41.106;16.688;2023-07-13T06:55:23;39.54;27.39
69464;DHT22;56665;41.106;16.688;2023-07-13T06:58:27;39.90;27.51
69464;DHT22;56665;41.106;16.688;2023-07-13T07:01:31;40.36;26.92
69464;DHT22;56665;41.106;16.688;2023-07-13T07:04:37;40.80;26.38
69464;DHT22;56665;41.106;16.688;2023-07-13T07:07:43;41.35;26.04
69464;DHT22;56665;41.106;16.688;2023-07-13T07:10:46;42.08;25.12
69464;DHT22;56665;41.106;16.688;2023-07-13T07:13:51;43.07;24.11
69464;DHT22;56665;41.106;16.688;2023-07-13T07:16:55;44.36;23.25
69464;DHT22;56665;41.106;16.688;2023-07-13T07:19:59;45.76;22.27
69464;DHT22;56665;41.106;16.688;2023-07-13T07:23:03;47.43;21.23
69464;DHT22;56665;41.106;16.688;2023-07-13T07:26:07;49.03;19.73
69464;DHT22;56665;41.106;16.688;2023-07-13T07:29:12;50.70;18.58
69464;DHT22;56665;41.106;16.688;2023-07-13T07:32:16;51.71;18.38
69464;DHT22;56665;41.106;16.688;2023-07-13T07:35:19;52.14;17.82
69464;DHT22;56665;41.106;16.688;2023-07-13T07:38:23;52.56;17.63
69464;DHT22;56665;41.106;16.688;2023-07-13T07:41:27;52.59;17.17
69464;DHT22;56665;41.106;16.688;2023-07-13T07:44:31;52.49;17.11
69464;DHT22;56665;41.106;16.688;2023-07-13T07:47:35;52.22;17.20
69464;DHT22;56665;41.106;16.688;2023-07-13T07:50:39;52.49;17.12
69464;DHT22;56665;41.106;16.688;2023-07-13T07:53:43;52.86;16.92
69464;DHT22;56665;41.106;16.688;2023-07-13T07:56:47;53.42;16.73
69464;DHT22;56665;41.106;16.688;2023-07-13T07:59:50;53.04;16.83
69464;DHT22;56665;41.106;16.688;2023-07-13T08:02:54;52.76;16.49
69464;DHT22;56665;41.106;16.688;2023-07-13T08:05:58;52.25;16.84
69464;DHT22;56665;41.106;16.688;2023-07-13T08:09:01;52.21;16.67
69464;DHT22;56665;41.106;16.688;2023-07-13T08:12:08;52.25;17.16
69464;DHT22;56665;41.106;16.688;2023-07-13T08:15:14;52.60;18.29
69464;DHT22;56665;41.106;16.688;2023-07-13T08:18:18;52.74;18.91
69464;DHT22;56665;41.106;16.688;2023-07-13T08:21:22;52.79;18.80
69464;DHT22;56665;41.106;16.688;2023-07-13T08:24:25;52.42;19.18
69464;DHT22;56665;41.106;16.688;2023-07-13T08:27:29;52.45;18.75
69464;DHT22;56665;41.106;16.688;2023-07-13T08:30:33;52.56;18.57
69464;DHT22;56665;41.106;16.688;2023-07-13T08:33:37;52.55;18.27
69464;DHT22;56665;41.106;16.688;2023-07-13T08:36:41;52.69;18.37
69464;DHT22;56665;41.106;16.688;2023-07-13T08:39:45;52.19;18.04
69464;DHT22;56665;41.106;16.688;2023-07-13T08:42:59;51.95;18.23
69464;DHT22;56665;41.106;16.688;2023-07-13T08:49:15;52.16;18.44
69464;DHT22;56665;41.106;16.688;2023-07-13T08:52:37;51.94;18.39
69464;DHT22;56665;41.106;16.688;2023-07-13T08:55:42;51.57;18.34
69464;DHT22;56665;41.106;16.688;2023-07-13T08:58:27;50.38;18.43
69464;DHT22;56665;41.106;16.688;2023-07-13T09:05:03;49.33;18.83
69464;DHT22;56665;41.106;16.688;2023-07-13T09:08:23;49.78;18.43
69464;DHT22;56665;41.106;16.688;2023-07-13T09:11:49;49.22;18.79
69464;DHT22;56665;41.106;16.688;2023-07-13T09:14:56;48.88;18.87
69464;DHT22;56665;41.106;16.688;2023-07-13T09:18:22;48.91;18.70
69464;DHT22;56665;41.106;16.688;2023-07-13T09:21:39;48.47;18.94
69464;DHT22;56665;41.106;16.688;2023-07-13T09:24:52;48.06;18.90
69464;DHT22;56665;41.106;16.688;2023-07-13T09:28:02;47.61;19.00
69464;DHT22;56665;41.106;16.688;2023-07-13T09:31:23;47.45;19.07
69464;DHT22;56665;41.106;16.688;2023-07-13T09:34:28;47.63;18.74
69464;DHT22;56665;41.106;16.688;2023-07-13T09:37:34;47.72;18.90
69464;DHT22;56665;41.106;16.688;2023-07-13T09:40:59;47.81;18.71
69464;DHT22;56665;41.106;16.688;2023-07-13T09:47:17;47.60;19.08
69464;DHT22;56665;41.106;16.688;2023-07-13T09:50:20;47.78;19.00
69464;DHT22;56665;41.106;16.688;2023-07-13T09:53:30;47.54;18.65
69464;DHT22;56665;41.106;16.688;2023-07-13T09:56:34;47.49;18.87
69464;DHT22;56665;41.106;16.688;2023-07-13T09:59:45;47.08;19.01
69464;DHT22;56665;41.106;16.688;2023-07-13T10:03:19;46.91;18.75
69464;DHT22;56665;41.106;16.688;2023-07-13T10:06:23;46.34;18.93
69464;DHT22;56665;41.106;16.688;2023-07-13T10:09:27;46.52;19.10
69464;DHT22;56665;41.106;16.688;2023-07-13T10:12:36;46.51;19.40
69464;DHT22;56665;41.106;16.688;2023-07-13T10:15:40;46.37;19.42
69464;DHT22;56665;41.106;16.688;2023-07-13T10:18:55;46.38;19.31
69464;DHT22;56665;41.106;16.688;2023-07-13T10:22:02;46.28;20.27
69464;DHT22;56665;41.106;16.688;2023-07-13T10:25:15;45.94;25.24
69464;DHT22;56665;41.106;16.688;2023-07-13T10:28:33;45.65;25.64
69464;DHT22;56665;41.106;16.688;2023-07-13T10:31:38;44.77;26.51
69464;DHT22;56665;41.106;16.688;2023-07-13T10:34:45;43.43;28.19
69464;DHT22;56665;41.106;16.688;2023-07-13T10:38:02;43.21;28.43
69464;DHT22;56665;41.106;16.688;2023-07-13T10:41:14;42.77;28.41
69464;DHT22;56665;41.106;16.688;2023-07-13T10:44:30;42.64;28.48
69464;DHT22;56665;41.106;16.688;2023-07-13T10:47:34;42.40;28.14
69464;DHT22;56665;41.106;16.688;2023-07-13T10:50:40;42.25;28.09
69464;DHT22;56665;41.106;16.688;2023-07-13T10:53:45;42.62;27.62
69464;DHT22;56665;41.106;16.688;2023-07-13T10:56:51;42.71;27.22
69464;DHT22;56665;41.106;16.688;2023-07-13T11:03:13;42.46;27.79
69464;DHT22;56665;41.106;16.688;2023-07-13T11:06:33;42.71;27.26
69464;DHT22;56665;41.106;16.688;2023-07-13T11:09:40;42.87;26.79
69464;DHT22;56665;41.106;16.688;2023-07-13T11:15:51;43.00;26.79
69464;DHT22;56665;41.106;16.688;2023-07-13T11:22:15;42.59;26.86
69464;DHT22;56665;41.106;16.688;2023-07-13T11:28:25;42.80;26.93
69464;DHT22;56665;41.106;16.688;2023-07-13T11:31:33;43.17;26.55
69464;DHT22;56665;41.106;16.688;2023-07-13T11:34:38;43.35;26.03
69464;DHT22;56665;41.106;16.688;2023-07-13T11:37:45;42.80;26.31
69464;DHT22;56665;41.106;16.688;2023-07-13T11:40:53;42.39;27.36
69464;DHT22;56665;41.106;16.688;2023-07-13T11:44:12;42.03;28.12
69464;DHT22;56665;41.106;16.688;2023-07-13T11:47:23;41.98;28.01
69464;DHT22;56665;41.106;16.688;2023-07-13T11:50:28;42.32;27.79
69464;DHT22;56665;41.106;16.688;2023-07-13T11:53:40;42.66;27.80
69464;DHT22;56665;41.106;16.688;2023-07-13T11:56:44;42.59;28.24
69464;DHT22;56665;41.106;16.688;2023-07-13T11:59:51;42.56;27.96
69464;DHT22;56665;41.106;16.688;2023-07-13T12:02:57;42.63;27.99
69464;DHT22;56665;41.106;16.688;2023-07-13T12:06:28;42.74;27.80
69464;DHT22;56665;41.106;16.688;2023-07-13T12:09:33;42.47;28.13
69464;DHT22;56665;41.106;16.688;2023-07-13T12:12:46;42.91;27.73
69464;DHT22;56665;41.106;16.688;2023-07-13T12:15:54;42.70;28.01
69464;DHT22;56665;41.106;16.688;2023-07-13T12:19:00;42.98;27.79
69464;DHT22;56665;41.106;16.688;2023-07-13T12:22:04;43.29;26.93
69464;DHT22;56665;41.106;16.688;2023-07-13T12:25:12;43.55;26.71
69464;DHT22;56665;41.106;16.688;2023-07-13T12:31:42;43.85;26.47
69464;DHT22;56665;41.106;16.688;2023-07-13T12:34:55;43.34;26.83
69464;DHT22;56665;41.106;16.688;2023-07-13T12:37:59;43.51;27.07
69464;DHT22;56665;41.106;16.688;2023-07-13T12:41:04;43.39;27.30
69464;DHT22;56665;41.106;16.688;2023-07-13T12:44:14;43.42;27.29
69464;DHT22;56665;41.106;16.688;2023-07-13T12:47:20;43.45;27.08
69464;DHT22;56665;41.106;16.688;2023-07-13T12:50:30;43.08;27.50
69464;DHT22;56665;41.106;16.688;2023-07-13T12:53:40;43.23;27.53
69464;DHT22;56665;41.106;16.688;2023-07-13T12:56:45;43.45;27.18
69464;DHT22;56665;41.106;16.688;2023-07-13T12:59:53;43.49;26.53
69464;DHT22;56665;41.106;16.688;2023-07-13T13:02:58;43.56;26.58
69464;DHT22;56665;41.106;16.688;2023-07-13T13:06:21;43.65;26.18
69464;DHT22;56665;41.106;16.688;2023-07-13T13:09:28;43.70;25.06
69464;DHT22;56665;41.106;16.688;2023-07-13T13:12:31;43.65;25.25
69464;DHT22;56665;41.106;16.688;2023-07-13T13:15:35;43.59;25.50
69464;DHT22;56665;41.106;16.688;2023-07-13T13:18:40;43.55;25.61
69464;DHT22;56665;41.106;16.688;2023-07-13T13:21:45;43.26;25.94
69464;DHT22;56665;41.106;16.688;2023-07-13T13:24:49;43.51;25.73
69464;DHT22;56665;41.106;16.688;2023-07-13T13:27:55;43.41;26.09
69464;DHT22;56665;41.106;16.688;2023-07-13T13:30:59;43.42;25.58
69464;DHT22;56665;41.106;16.688;2023-07-13T13:34:08;43.23;25.60
69464;DHT22;56665;41.106;16.688;2023-07-13T13:37:18;43.22;26.18
69464;DHT22;56665;41.106;16.688;2023-07-13T13:40:22;43.19;26.16
69464;DHT22;56665;41.106;16.688;2023-07-13T13:43:31;43.38;26.33
69464;DHT22;56665;41.106;16.688;2023-07-13T13:46:35;43.41;25.41
69464;DHT22;56665;41.106;16.688;2023-07-13T13:49:39;43.26;26.27
69464;DHT22;56665;41.106;16.688;2023-07-13T13:52:43;43.12;25.73
69464;DHT22;56665;41.106;16.688;2023-07-13T13:55:47;42.97;26.24
69464;DHT22;56665;41.106;16.688;2023-07-13T13:58:50;42.78;27.03
69464;DHT22;56665;41.106;16.688;2023-07-13T14:01:54;42.84;26.82
69464;DHT22;56665;41.106;16.688;2023-07-13T14:05:00;42.81;27.26
69464;DHT22;56665;41.106;16.688;2023-07-13T14:08:04;42.51;27.53
69464;DHT22;56665;41.106;16.688;2023-07-13T14:11:12;42.29;27.51
69464;DHT22;56665;41.106;16.688;2023-07-13T14:14:22;42.13;26.91
69464;DHT22;56665;41.106;16.688;2023-07-13T14:17:28;42.09;27.13
69464;DHT22;56665;41.106;16.688;2023-07-13T14:20:31;42.12;27.01
69464;DHT22;56665;41.106;16.688;2023-07-13T14:23:35;42.12;27.07
69464;DHT22;56665;41.106;16.688;2023-07-13T14:26:40;41.94;26.14
69464;DHT22;56665;41.106;16.688;2023-07-13T14:29:45;41.94;26.74
69464;DHT22;56665;41.106;16.688;2023-07-13T14:32:48;41.85;26.42
69464;DHT22;56665;41.106;16.688;2023-07-13T14:35:55;41.70;26.85
69464;DHT22;56665;41.106;16.688;2023-07-13T14:39:01;41.72;27.33
69464;DHT22;56665;41.106;16.688;2023-07-13T14:42:05;41.55;27.45
69464;DHT22;56665;41.106;16.688;2023-07-13T14:45:14;41.43;27.44
69464;DHT22;56665;41.106;16.688;2023-07-13T14:48:20;41.38;27.10
69464;DHT22;56665;41.106;16.688;2023-07-13T14:51:25;41.30;27.42
69464;DHT22;56665;41.106;16.688;2023-07-13T14:54:29;40.87;27.36
69464;DHT22;56665;41.106;16.688;2023-07-13T14:57:32;40.80;27.40
69464;DHT22;56665;41.106;16.688;2023-07-13T15:00:36;40.72;27.35
69464;DHT22;56665;41.106;16.688;2023-07-13T15:03:47;40.60;27.89
69464;DHT22;56665;41.106;16.688;2023-07-13T15:07:01;40.29;28.09
69464;DHT22;56665;41.106;16.688;2023-07-13T15:10:26;40.34;28.69
69464;DHT22;56665;41.106;16.688;2023-07-13T15:13:30;40.08;28.98
69464;DHT22;56665;41.106;16.688;2023-07-13T15:16:34;39.96;28.56
69464;DHT22;56665;41.106;16.688;2023-07-13T15:19:38;39.98;28.62
69464;DHT22;56665;41.106;16.688;2023-07-13T15:22:42;39.96;28.50
69464;DHT22;56665;41.106;16.688;2023-07-13T15:25:46;40.02;28.47
69464;DHT22;56665;41.106;16.688;2023-07-13T15:28:50;39.98;28.40
69464;DHT22;56665;41.106;16.688;2023-07-13T15:31:53;39.88;28.46
69464;DHT22;56665;41.106;16.688;2023-07-13T15:34:57;39.88;28.38
69464;DHT22;56665;41.106;16.688;2023-07-13T15:38:01;39.83;28.19
69464;DHT22;56665;41.106;16.688;2023-07-13T15:44:28;39.78;27.36
69464;DHT22;56665;41.106;16.688;2023-07-13T15:47:31;39.66;27.39
69464;DHT22;56665;41.106;16.688;2023-07-13T15:50:43;39.54;27.43
69464;DHT22;56665;41.106;16.688;2023-07-13T15:53:47;39.56;28.00
69464;DHT22;56665;41.106;16.688;2023-07-13T15:56:53;39.53;28.07
69464;DHT22;56665;41.106;16.688;2023-07-13T15:59:58;39.45;27.98
69464;DHT22;56665;41.106;16.688;2023-07-13T16:03:03;39.37;27.88
69464;DHT22;56665;41.106;16.688;2023-07-13T16:06:31;39.35;27.96
69464;DHT22;56665;41.106;16.688;2023-07-13T16:09:37;39.36;28.08
69464;DHT22;56665;41.106;16.688;2023-07-13T16:12:41;39.35;28.07
69464;DHT22;56665;41.106;16.688;2023-07-13T16:15:45;39.27;28.72
69464;DHT22;56665;41.106;16.688;2023-07-13T16:18:49;39.12;29.10
69464;DHT22;56665;41.106;16.688;2023-07-13T16:21:52;39.02;28.62
69464;DHT22;56665;41.106;16.688;2023-07-13T16:24:56;39.03;28.24
69464;DHT22;56665;41.106;16.688;2023-07-13T16:28:01;38.96;28.48
69464;DHT22;56665;41.106;16.688;2023-07-13T16:31:04;38.91;28.93
69464;DHT22;56665;41.106;16.688;2023-07-13T16:34:10;38.75;29.60
69464;DHT22;56665;41.106;16.688;2023-07-13T16:37:26;38.64;29.94
69464;DHT22;56665;41.106;16.688;2023-07-13T16:40:33;38.52;29.28
69464;DHT22;56665;41.106;16.688;2023-07-13T16:43:38;38.32;29.37
69464;DHT22;56665;41.106;16.688;2023-07-13T16:46:43;38.06;29.91
69464;DHT22;56665;41.106;16.688;2023-07-13T16:49:47;37.90;29.82
69464;DHT22;56665;41.106;16.688;2023-07-13T16:52:51;37.73;30.04
69464;DHT22;56665;41.106;16.688;2023-07-13T16:55:56;37.58;30.31
69464;DHT22;56665;41.106;16.688;2023-07-13T16:59:14;37.56;30.31
69464;DHT22;56665;41.106;16.688;2023-07-13T17:02:30;37.49;30.82
69464;DHT22;56665;41.106;16.688;2023-07-13T17:05:40;37.42;30.87
69464;DHT22;56665;41.106;16.688;2023-07-13T17:08:44;37.39;30.94
69464;DHT22;56665;41.106;16.688;2023-07-13T17:11:48;37.29;30.77
69464;DHT22;56665;41.106;16.688;2023-07-13T17:14:53;37.29;30.68
69464;DHT22;56665;41.106;16.688;2023-07-13T17:17:57;37.26;31.12
69464;DHT22;56665;41.106;16.688;2023-07-13T17:21:14;37.18;31.54
69464;DHT22;56665;41.106;16.688;2023-07-13T17:24:20;37.10;32.14
69464;DHT22;56665;41.106;16.688;2023-07-13T17:27:24;37.01;32.34
69464;DHT22;56665;41.106;16.688;2023-07-13T17:30:28;36.84;31.70
69464;DHT22;56665;41.106;16.688;2023-07-13T17:33:35;36.81;31.80
69464;DHT22;56665;41.106;16.688;2023-07-13T17:36:42;36.77;32.19
69464;DHT22;56665;41.106;16.688;2023-07-13T17:39:46;36.78;32.44
69464;DHT22;56665;41.106;16.688;2023-07-13T17:42:50;36.71;32.63
69464;DHT22;56665;41.106;16.688;2023-07-13T17:46:16;36.67;32.91
69464;DHT22;56665;41.106;16.688;2023-07-13T17:49:22;36.57;32.67
69464;DHT22;56665;41.106;16.688;2023-07-13T17:52:34;36.50;32.18
69464;DHT22;56665;41.106;16.688;2023-07-13T17:55:38;36.44;31.85
69464;DHT22;56665;41.106;16.688;2023-07-13T17:58:42;36.39;31.66
69464;DHT22;56665;41.106;16.688;2023-07-13T18:01:46;36.39;31.80
69464;DHT22;56665;41.106;16.688;2023-07-13T18:04:50;36.34;31.44
69464;DHT22;56665;41.106;16.688;2023-07-13T18:07:54;36.33;31.09
69464;DHT22;56665;41.106;16.688;2023-07-13T18:10:59;36.22;31.28
69464;DHT22;56665;41.106;16.688;2023-07-13T18:14:03;36.16;31.40
69464;DHT22;56665;41.106;16.688;2023-07-13T18:17:10;36.13;31.15
69464;DHT22;56665;41.106;16.688;2023-07-13T18:20:20;36.15;31.37
69464;DHT22;56665;41.106;16.688;2023-07-13T18:23:24;36.10;31.70
69464;DHT22;56665;41.106;16.688;2023-07-13T18:26:28;36.06;31.93
69464;DHT22;56665;41.106;16.688;2023-07-13T18:29:32;35.99;32.27
69464;DHT22;56665;41.106;16.688;2023-07-13T18:32:36;35.82;34.44
69464;DHT22;56665;41.106;16.688;2023-07-13T18:35:40;35.68;35.29
69464;DHT22;56665;41.106;16.688;2023-07-13T18:38:44;35.58;35.29
69464;DHT22;56665;41.106;16.688;2023-07-13T18:41:48;35.57;35.05
69464;DHT22;56665;41.106;16.688;2023-07-13T18:44:52;35.55;34.98
69464;DHT22;56665;41.106;16.688;2023-07-13T18:47:56;35.54;35.10
69464;DHT22;56665;41.106;16.688;2023-07-13T18:51:01;35.48;35.47
69464;DHT22;56665;41.106;16.688;2023-07-13T18:54:12;35.41;35.95
69464;DHT22;56665;41.106;16.688;2023-07-13T18:57:17;35.33;36.28
69464;DHT22;56665;41.106;16.688;2023-07-13T19:00:25;35.24;36.92
69464;DHT22;56665;41.106;16.688;2023-07-13T19:03:33;34.94;37.65
69464;DHT22;56665;41.106;16.688;2023-07-13T19:06:39;34.82;38.24
69464;DHT22;56665;41.106;16.688;2023-07-13T19:09:43;34.64;38.61
69464;DHT22;56665;41.106;16.688;2023-07-13T19:12:51;34.46;38.95
69464;DHT22;56665;41.106;16.688;2023-07-13T19:15:56;34.43;38.82
69464;DHT22;56665;41.106;16.688;2023-07-13T19:19:00;34.31;39.14
69464;DHT22;56665;41.106;16.688;2023-07-13T19:22:05;34.22;38.92
69464;DHT22;56665;41.106;16.688;2023-07-13T19:25:15;34.16;38.45
69464;DHT22;56665;41.106;16.688;2023-07-13T19:28:35;34.15;37.95
69464;DHT22;56665;41.106;16.688;2023-07-13T19:31:39;34.15;37.76
69464;DHT22;56665;41.106;16.688;2023-07-13T19:34:43;34.12;37.92
69464;DHT22;56665;41.106;16.688;2023-07-13T19:37:47;34.01;38.10
69464;DHT22;56665;41.106;16.688;2023-07-13T19:40:52;33.91;38.73
69464;DHT22;56665;41.106;16.688;2023-07-13T19:43:57;33.74;39.23